TimeCST,TemperatureF,Dew PointF,Humidity,Sea Level PressureIn,VisibilityMPH,Wind Direction,Wind SpeedMPH,Gust SpeedMPH,PrecipitationIn,Events,Conditions,WindDirDegrees,DateUTC
12:54 AM,39.9,39.0,97,29.91,0.5,West,3.5,-,N/A,,Mist,260,2013-02-22 06:54:00
1:54 AM,39.0,37.9,96,29.92,0.5,Calm,Calm,-,N/A,,Mist,0,2013-02-22 07:54:00
2:54 AM,39.0,37.9,96,29.92,0.2,South,4.6,-,N/A,Fog,Fog,180,2013-02-22 08:54:00
3:02 AM,39.2,37.4,93,29.92,0.2,South,5.8,-,N/A,Fog,Fog,180,2013-02-22 09:02:00
3:14 AM,37.4,37.4,100,29.92,0.2,South,4.6,-,N/A,Fog,Fog,170,2013-02-22 09:14:00
3:54 AM,37.9,37.0,97,29.94,0.2,SW,3.5,-,N/A,Fog,Fog,220,2013-02-22 09:54:00
4:08 AM,37.4,37.4,100,29.94,0.2,WSW,3.5,-,N/A,Fog,Fog,240,2013-02-22 10:08:00
4:21 AM,37.4,37.4,100,29.95,0.2,WSW,3.5,-,N/A,Fog,Fog,240,2013-02-22 10:21:00
4:54 AM,37.0,36.0,96,29.96,0.2,West,3.5,-,N/A,Fog,Fog,270,2013-02-22 10:54:00
5:13 AM,37.4,35.6,93,29.97,0.2,West,4.6,-,N/A,Fog,Fog,280,2013-02-22 11:13:00
5:43 AM,37.4,35.6,93,29.97,0.5,SW,3.5,-,N/A,Fog,Fog,230,2013-02-22 11:43:00
5:54 AM,37.0,37.0,100,29.98,0.2,SW,3.5,-,N/A,Fog,Fog,220,2013-02-22 11:54:00
6:16 AM,37.4,37.4,100,29.98,0.5,SW,4.6,-,N/A,Fog,Fog,230,2013-02-22 12:16:00
6:54 AM,37.0,36.0,96,30.00,0.5,West,4.6,-,N/A,Fog,Fog,270,2013-02-22 12:54:00
7:27 AM,37.4,35.6,93,30.02,0.2,WNW,5.8,-,N/A,Fog,Fog,290,2013-02-22 13:27:00
7:54 AM,37.0,37.0,100,30.05,0.2,West,4.6,-,N/A,Fog,Fog,280,2013-02-22 13:54:00
8:54 AM,37.0,36.0,96,30.06,0.2,WSW,4.6,-,N/A,,Overcast,250,2013-02-22 14:54:00
9:07 AM,37.4,35.6,93,30.06,0.5,WNW,4.6,-,N/A,,Overcast,290,2013-02-22 15:07:00
9:16 AM,37.4,35.6,93,30.07,2.0,WNW,6.9,-,N/A,,Overcast,290,2013-02-22 15:16:00
9:54 AM,37.0,36.0,96,30.09,2.0,West,3.5,-,N/A,,Overcast,270,2013-02-22 15:54:00
10:49 AM,37.4,35.6,93,30.09,10.0,WSW,4.6,-,N/A,,Overcast,250,2013-02-22 16:49:00
10:54 AM,37.9,36.0,93,30.09,10.0,Variable,5.8,-,N/A,,Overcast,0,2013-02-22 16:54:00
11:12 AM,39.2,35.6,87,30.08,10.0,Variable,4.6,-,N/A,,Overcast,0,2013-02-22 17:12:00
11:54 AM,42.1,37.0,82,30.07,10.0,Calm,Calm,-,N/A,,Overcast,0,2013-02-22 17:54:00
12:18 PM,42.8,37.4,81,30.06,10.0,Calm,Calm,-,N/A,,Overcast,0,2013-02-22 18:18:00
12:54 PM,44.1,37.0,76,30.06,10.0,Calm,Calm,-,N/A,,Overcast,0,2013-02-22 18:54:00
1:00 PM,44.6,37.4,76,30.06,10.0,Variable,3.5,-,N/A,,Overcast,0,2013-02-22 19:00:00
1:12 PM,44.6,37.4,76,30.04,10.0,Variable,3.5,-,N/A,,Mostly Cloudy,0,2013-02-22 19:12:00
1:54 PM,46.0,37.0,71,30.03,10.0,Variable,5.8,-,N/A,,Overcast,0,2013-02-22 19:54:00
2:54 PM,48.9,37.0,64,30.01,10.0,NW,4.6,-,N/A,,Overcast,310,2013-02-22 20:54:00
3:54 PM,48.0,37.0,66,30.01,10.0,Calm,Calm,-,N/A,,Overcast,0,2013-02-22 21:54:00
4:54 PM,48.9,37.0,64,30.02,10.0,NNW,3.5,-,N/A,,Mostly Cloudy,340,2013-02-22 22:54:00
5:54 PM,46.0,37.0,71,30.03,10.0,North,3.5,-,N/A,,Mostly Cloudy,360,2013-02-22 23:54:00
6:32 PM,46.4,37.4,71,30.05,10.0,NNW,8.1,-,N/A,,Mostly Cloudy,330,2013-02-23 00:32:00
6:54 PM,45.0,37.9,76,30.05,10.0,NW,8.1,-,N/A,,Mostly Cloudy,320,2013-02-23 00:54:00
7:30 PM,44.6,37.4,76,30.05,10.0,NNW,8.1,-,N/A,,Mostly Cloudy,340,2013-02-23 01:30:00
7:54 PM,43.0,36.0,76,30.06,10.0,North,9.2,-,N/A,,Mostly Cloudy,350,2013-02-23 01:54:00
8:21 PM,42.8,35.6,76,30.07,10.0,North,6.9,-,N/A,,Mostly Cloudy,350,2013-02-23 02:21:00
8:54 PM,42.1,35.1,76,30.08,10.0,NNW,8.1,-,N/A,,Overcast,340,2013-02-23 02:54:00
9:46 PM,41.0,33.8,76,30.08,10.0,NNW,5.8,-,N/A,,Overcast,340,2013-02-23 03:46:00
9:54 PM,41.0,34.0,76,30.08,10.0,NNW,5.8,-,N/A,,Overcast,340,2013-02-23 03:54:00
10:54 PM,39.9,34.0,79,30.06,10.0,North,9.2,-,N/A,,Mostly Cloudy,350,2013-02-23 04:54:00
11:54 PM,37.0,30.0,76,30.08,10.0,NNW,5.8,-,N/A,,Mostly Cloudy,340,2013-02-23 05:54:00